Time;durP1;ratioP1;P1;durP2;ratioP2;P2;SDS_P1;SDS_P2;PMS_P1;PMS_P2;Temp;Humidity;BMP_temperature;BMP_pressure;BME280_temperature;BME280_humidity;BME280_pressure;Samples;Min_cycle;Max_cycle;Signal;HPM_P1;HPM_P2
2021/12/12 00:01:05;;;;;;;22.80;3.67;;;;;;;12.04;100.00;98545.13;5139377;27;20046;-66
2021/12/12 00:03:39;;;;;;;17.40;3.85;;;;;;;11.85;100.00;98567.09;5139572;27;20066;-64
2021/12/12 00:06:34;;;;;;;18.15;3.70;;;;;;;11.87;100.00;98596.09;5138824;27;20031;-64
2021/12/12 00:09:16;;;;;;;28.10;4.47;;;;;;;11.89;100.00;98600.19;5137837;27;20047;-66
2021/12/12 00:11:42;;;;;;;18.98;3.53;;;;;;;11.97;100.00;98572.66;5133276;27;20357;-64
2021/12/12 00:14:35;;;;;;;25.88;4.93;;;;;;;11.86;100.00;98587.31;5138589;27;20035;-67
2021/12/12 00:17:02;;;;;;;20.70;4.28;;;;;;;11.92;100.00;98561.81;5115313;27;20054;-64
2021/12/12 00:19:28;;;;;;;20.17;4.50;;;;;;;11.94;100.00;98526.13;5138478;27;20380;-66
2021/12/12 00:21:57;;;;;;;15.27;3.47;;;;;;;11.93;100.00;98547.53;5135512;27;20245;-64
2021/12/12 00:24:23;;;;;;;13.07;3.25;;;;;;;11.97;100.00;98541.63;5136339;27;20054;-65
2021/12/12 00:26:51;;;;;;;16.92;3.17;;;;;;;12.06;100.00;98515.75;5133614;27;20027;-64
2021/12/12 00:29:18;;;;;;;21.48;4.40;;;;;;;12.04;100.00;98454.09;5136701;27;20094;-64
2021/12/12 00:31:46;;;;;;;18.30;4.32;;;;;;;11.81;100.00;98422.66;5136936;27;20286;-66
2021/12/12 00:34:13;;;;;;;23.40;4.55;;;;;;;11.71;100.00;98419.56;5132927;27;20023;-66
2021/12/12 00:36:40;;;;;;;25.35;5.28;;;;;;;11.58;100.00;98387.72;5134841;27;20050;-64
2021/12/12 00:39:14;;;;;;;23.15;4.30;;;;;;;11.63;100.00;98433.81;5136711;27;20090;-64
2021/12/12 00:41:45;;;;;;;15.40;3.92;;;;;;;11.63;100.00;98438.31;5132323;27;20030;-64
2021/12/12 00:44:14;;;;;;;16.80;4.25;;;;;;;11.68;100.00;98446.47;5137748;27;20224;-66
2021/12/12 00:46:40;;;;;;;22.63;4.00;;;;;;;11.70;100.00;98477.06;5134336;27;20225;-64
2021/12/12 00:49:06;;;;;;;19.63;4.07;;;;;;;11.75;100.00;98497.69;5131047;28;20102;-67
2021/12/12 00:51:35;;;;;;;20.20;4.07;;;;;;;11.72;100.00;98496.25;5135711;27;20047;-67
2021/12/12 00:54:01;;;;;;;19.85;4.35;;;;;;;11.77;100.00;98517.72;5132565;27;20474;-67
2021/12/12 00:56:26;;;;;;;19.33;4.07;;;;;;;11.83;100.00;98537.31;5132622;28;20031;-68
2021/12/12 00:58:53;;;;;;;19.45;4.82;;;;;;;11.86;100.00;98549.38;5135088;27;20062;-65
2021/12/12 01:01:30;;;;;;;15.02;4.47;;;;;;;11.82;100.00;98556.91;5136589;28;20039;-65
2021/12/12 01:04:01;;;;;;;20.42;4.00;;;;;;;11.84;100.00;98544.25;5135563;28;20282;-67
2021/12/12 01:06:28;;;;;;;18.83;4.57;;;;;;;11.89;100.00;98525.91;5133849;28;20035;-65
2021/12/12 01:08:56;;;;;;;15.65;3.35;;;;;;;11.56;100.00;98554.09;5138407;28;20035;-67
2021/12/12 01:11:22;;;;;;;16.30;4.72;;;;;;;11.55;100.00;98550.66;5135909;27;20028;-64
2021/12/12 01:13:49;;;;;;;13.50;4.90;;;;;;;11.61;100.00;98549.84;5132208;28;20266;-67
2021/12/12 01:16:22;;;;;;;18.63;3.72;;;;;;;11.50;100.00;98559.19;5133315;28;20032;-64
2021/12/12 01:18:56;;;;;;;20.45;4.50;;;;;;;11.54;100.00;98562.25;5134994;28;20050;-64
2021/12/12 01:21:25;;;;;;;;;;;;;;;11.40;100.00;98548.09;5133710;28;20043;-65
2021/12/12 01:23:56;;;;;;;12.85;3.25;;;;;;;11.51;100.00;98570.59;5134293;28;19911;-66
2021/12/12 01:26:23;;;;;;;9.98;2.25;;;;;;;11.61;100.00;98586.97;5136650;28;20321;-65
2021/12/12 01:28:53;;;;;;;6.82;1.67;;;;;;;11.69;100.00;98592.09;5138198;28;20090;-64
2021/12/12 01:31:25;;;;;;;11.18;1.90;;;;;;;11.86;100.00;98613.03;5138297;27;20035;-64
2021/12/12 01:33:58;;;;;;;4.25;1.58;;;;;;;11.81;100.00;98613.59;5134617;28;20027;-66
2021/12/12 01:36:29;;;;;;;3.75;1.20;;;;;;;11.97;100.00;98623.06;5135268;28;20027;-64
2021/12/12 01:38:56;;;;;;;7.80;2.00;;;;;;;12.10;100.00;98628.41;5137157;27;20042;-67
2021/12/12 01:41:34;;;;;;;6.20;2.50;;;;;;;12.62;100.00;98625.09;5137691;28;20240;-64
2021/12/12 01:44:15;;;;;;;4.65;2.00;;;;;;;12.42;100.00;98619.72;5140972;27;20023;-65
2021/12/12 01:46:47;;;;;;;6.05;2.28;;;;;;;12.29;100.00;98613.56;5142452;27;20046;-64
2021/12/12 01:49:26;;;;;;;6.82;2.40;;;;;;;12.34;100.00;98635.03;5142107;27;20090;-66
2021/12/12 01:51:54;;;;;;;5.32;2.70;;;;;;;12.49;100.00;98641.00;5143094;27;20046;-67
2021/12/12 01:54:26;;;;;;;4.88;2.03;;;;;;;12.56;100.00;98635.72;5141186;27;20081;-67
2021/12/12 01:56:58;;;;;;;6.15;1.58;;;;;;;12.31;100.00;98632.78;5131982;27;20039;-65
2021/12/12 01:59:28;;;;;;;6.63;1.85;;;;;;;11.91;100.00;98615.91;5134710;27;20110;-66
2021/12/12 02:02:23;;;;;;;8.77;1.80;;;;;;;11.45;100.00;98611.97;5136873;27;20029;-66
2021/12/12 02:04:54;;;;;;;12.70;2.40;;;;;;;11.37;100.00;98620.03;5139744;27;20077;-64
2021/12/12 02:07:24;;;;;;;6.07;1.77;;;;;;;11.29;100.00;98620.19;5134118;27;20035;-67
2021/12/12 02:09:51;;;;;;;11.68;2.30;;;;;;;11.05;100.00;98621.44;5138906;27;20284;-64
2021/12/12 02:12:19;;;;;;;9.70;2.58;;;;;;;11.16;100.00;98620.94;5139841;27;20337;-66
2021/12/12 02:14:46;;;;;;;6.90;2.22;;;;;;;11.29;100.00;98622.03;5140821;27;20309;-64
2021/12/12 02:17:26;;;;;;;9.82;2.42;;;;;;;11.26;100.00;98615.28;5139455;27;20016;-65
2021/12/12 02:36:10;;;;;;;8.25;1.85;;;;;;;12.15;100.00;98607.41;5134034;27;20136;-64
2021/12/12 02:38:36;;;;;;;9.77;1.70;;;;;;;12.40;100.00;98626.25;5134322;27;20024;-67
2021/12/12 02:41:07;;;;;;;11.43;2.60;;;;;;;12.11;100.00;98622.09;5139064;27;20359;-66
2021/12/12 02:43:37;;;;;;;12.73;2.80;;;;;;;11.57;100.00;98625.50;5141282;27;20051;-64
2021/12/12 02:46:03;;;;;;;18.60;3.40;;;;;;;11.06;100.00;98628.41;5141439;27;20039;-63
2021/12/12 02:48:41;;;;;;;10.93;2.78;;;;;;;11.06;100.00;98627.56;5141322;27;20087;-66
2021/12/12 02:51:11;;;;;;;12.65;3.10;;;;;;;10.91;100.00;98617.06;5140035;27;20038;-64
2021/12/12 02:53:52;;;;;;;19.15;3.92;;;;;;;10.85;100.00;98626.59;5139859;27;20267;-66
2021/12/12 02:56:26;;;;;;;12.00;2.85;;;;;;;10.87;100.00;98629.88;5140734;27;20210;-65
2021/12/12 02:58:52;;;;;;;11.10;3.15;;;;;;;10.88;100.00;98631.50;5140631;27;20047;-64
2021/12/12 03:01:27;;;;;;;10.60;2.60;;;;;;;10.88;100.00;98639.47;5141030;27;20256;-66
2021/12/12 03:03:53;;;;;;;11.55;2.47;;;;;;;10.92;100.00;98637.25;5137310;27;20211;-66
2021/12/12 03:06:23;;;;;;;10.70;2.67;;;;;;;11.02;100.00;98652.81;5137184;27;20046;-64
2021/12/12 03:08:52;;;;;;;14.20;2.53;;;;;;;10.98;100.00;98651.56;5134961;27;20046;-66
2021/12/12 03:11:19;;;;;;;13.02;2.88;;;;;;;11.05;100.00;98657.72;5121299;27;20344;-66
2021/12/12 03:13:46;;;;;;;9.38;2.28;;;;;;;11.14;100.00;98654.75;5137571;27;20038;-66
2021/12/12 03:16:12;;;;;;;5.68;2.33;;;;;;;11.21;100.00;98660.09;5129903;27;20036;-64
2021/12/12 03:18:43;;;;;;;8.95;2.28;;;;;;;11.24;100.00;98657.06;5137985;27;20019;-64
2021/12/12 03:21:32;;;;;;;5.68;2.22;;;;;;;11.02;100.00;98656.28;5133875;27;20045;-66
2021/12/12 03:24:10;;;;;;;6.32;2.22;;;;;;;10.85;100.00;98671.63;5136867;27;20033;-66
2021/12/12 03:26:36;;;;;;;9.07;2.45;;;;;;;10.66;100.00;98680.19;5138178;27;20038;-66
2021/12/12 03:29:04;;;;;;;7.85;2.38;;;;;;;10.61;100.00;98687.06;5138031;27;20090;-66
2021/12/12 03:31:34;;;;;;;8.15;2.40;;;;;;;10.60;100.00;98691.53;5138375;27;20070;-66
2021/12/12 03:34:03;;;;;;;5.82;2.20;;;;;;;10.61;100.00;98698.47;5136383;27;20038;-65
2021/12/12 03:36:28;;;;;;;6.28;1.70;;;;;;;10.62;100.00;98691.34;5138824;27;20309;-66
2021/12/12 03:38:59;;;;;;;3.42;1.88;;;;;;;10.71;100.00;98701.63;5139933;27;20131;-66
2021/12/12 03:41:30;;;;;;;8.77;1.55;;;;;;;10.60;100.00;98712.72;5140155;27;20077;-67
2021/12/12 03:44:00;;;;;;;3.75;1.70;;;;;;;10.48;100.00;98725.59;5140303;27;20077;-64
2021/12/12 03:46:26;;;;;;;11.80;3.42;;;;;;;10.74;100.00;98718.97;5139773;27;20027;-66
2021/12/12 03:48:53;;;;;;;9.27;3.30;;;;;;;10.85;100.00;98716.63;5137647;27;20225;-64
2021/12/12 03:51:23;;;;;;;12.52;3.90;;;;;;;10.92;100.00;98716.69;5139771;27;20034;-64
2021/12/12 03:53:49;;;;;;;16.08;5.20;;;;;;;11.03;100.00;98704.78;5137295;27;20311;-67
2021/12/12 03:56:14;;;;;;;13.20;5.40;;;;;;;11.06;100.00;98720.28;5139115;27;20237;-67
2021/12/12 03:58:40;;;;;;;13.02;5.10;;;;;;;11.11;100.00;98721.34;5137506;27;20058;-64
2021/12/12 04:01:31;;;;;;;11.98;4.22;;;;;;;11.31;99.73;98718.88;5138736;27;20032;-64
2021/12/12 04:04:08;;;;;;;11.63;3.65;;;;;;;11.28;96.47;98721.91;5127930;27;20317;-66
2021/12/12 04:06:34;;;;;;;8.30;4.10;;;;;;;11.10;95.54;98732.16;5134730;27;20098;-64
2021/12/12 04:09:01;;;;;;;6.60;2.53;;;;;;;10.61;98.12;98717.00;5138812;27;20035;-66
2021/12/12 04:11:33;;;;;;;3.17;1.67;;;;;;;10.78;99.17;98742.22;5136856;27;20134;-65
2021/12/12 04:14:02;;;;;;;7.28;2.22;;;;;;;10.70;100.00;98741.53;5137384;27;20084;-65
2021/12/12 04:19:05;;;;;;;8.20;2.25;;;;;;;10.85;97.21;98756.34;5027447;22;20457;-65
2021/12/12 04:21:31;;;;;;;1.95;1.60;;;;;;;10.72;98.03;98755.41;5003204;28;20052;-67
2021/12/12 04:23:57;;;;;;;2.80;1.98;;;;;;;10.46;99.11;98756.72;5003247;28;20046;-67
2021/12/12 04:26:25;;;;;;;3.88;2.28;;;;;;;10.38;100.00;98763.91;5003169;28;20085;-65
2021/12/12 04:29:32;;;;;;;5.72;2.03;;;;;;;10.75;100.00;98765.63;5003101;28;20042;-67
2021/12/12 04:32:04;;;;;;;4.07;1.90;;;;;;;10.66;98.70;98769.38;4997787;28;20080;-67
2021/12/12 04:34:32;;;;;;;5.70;3.35;;;;;;;10.72;99.88;98779.22;5003189;28;20037;-67
2021/12/12 04:37:03;;;;;;;8.82;3.70;;;;;;;10.66;97.86;98777.31;5003045;28;20105;-67
2021/12/12 04:39:33;;;;;;;9.43;4.72;;;;;;;10.74;97.36;98785.16;5003094;28;20034;-67
2021/12/12 04:42:10;;;;;;;5.03;3.15;;;;;;;10.34;96.89;98782.00;5002964;28;20057;-65
2021/12/12 04:44:38;;;;;;;5.63;2.85;;;;;;;9.87;98.71;98784.97;5003715;28;20030;-65
2021/12/12 04:50:41;;;;;;;6.53;1.88;;;;;;;9.04;100.00;98783.16;5002936;28;20141;-66
2021/12/12 04:53:37;;;;;;;4.35;1.92;;;;;;;8.91;100.00;98793.47;5003103;28;20046;-65
2021/12/12 04:56:25;;;;;;;3.22;1.20;;;;;;;8.98;100.00;98807.63;4999356;28;20057;-65
2021/12/12 04:59:33;;;;;;;3.60;0.90;;;;;;;9.25;100.00;98811.56;5002643;28;20048;-65
2021/12/12 05:02:13;;;;;;;6.25;2.00;;;;;;;9.13;100.00;98819.09;4961958;29;20345;-67
2021/12/12 05:04:53;;;;;;;8.23;4.75;;;;;;;9.25;100.00;98835.34;5000481;28;20046;-67
2021/12/12 05:07:32;;;;;;;11.93;5.93;;;;;;;9.40;100.00;98838.91;5006713;28;20041;-63
2021/12/12 05:10:03;;;;;;;14.35;6.07;;;;;;;9.73;100.00;98844.75;5018415;28;20258;-67
2021/12/12 05:12:37;;;;;;;3.58;1.80;;;;;;;9.51;100.00;98856.97;5018228;28;20248;-67
2021/12/12 05:15:18;;;;;;;5.90;1.95;;;;;;;9.33;100.00;98868.81;5020677;28;20074;-65
2021/12/12 05:17:49;;;;;;;1.52;1.08;;;;;;;9.30;100.00;98856.78;5022106;28;20041;-67
2021/12/12 05:20:28;;;;;;;3.20;1.20;;;;;;;9.46;100.00;98855.88;5025158;28;20029;-67
2021/12/12 05:22:56;;;;;;;5.85;1.00;;;;;;;9.42;100.00;98865.97;5025095;28;20030;-67
2021/12/12 05:25:28;;;;;;;2.90;0.77;;;;;;;9.50;100.00;98881.78;5022945;28;20088;-67
2021/12/12 05:27:58;;;;;;;4.72;0.93;;;;;;;9.67;100.00;98874.53;4990828;28;20350;-65
2021/12/12 05:30:33;;;;;;;5.13;1.15;;;;;;;9.49;100.00;98874.03;5004986;28;20045;-65
2021/12/12 05:33:00;;;;;;;2.53;0.73;;;;;;;9.17;100.00;98867.09;5013724;28;20037;-66
2021/12/12 05:35:32;;;;;;;1.98;1.00;;;;;;;9.06;100.00;98868.31;5022174;28;20022;-67
2021/12/12 05:37:58;;;;;;;3.22;1.10;;;;;;;9.14;100.00;98870.09;5022150;28;20065;-67
2021/12/12 05:40:28;;;;;;;4.15;1.92;;;;;;;9.17;100.00;98870.56;5022825;28;20033;-65
2021/12/12 05:42:59;;;;;;;4.20;0.80;;;;;;;8.93;100.00;98883.91;5023333;28;20042;-65
2021/12/12 05:45:26;;;;;;;3.00;0.88;;;;;;;8.98;100.00;98888.66;5024418;28;20044;-66
2021/12/12 05:47:51;;;;;;;1.75;0.90;;;;;;;9.00;100.00;98882.22;5022339;28;20041;-65
2021/12/12 05:50:19;;;;;;;4.22;0.90;;;;;;;9.19;100.00;98904.72;5021823;28;20030;-66
2021/12/12 05:52:46;;;;;;;3.00;0.90;;;;;;;9.16;100.00;98894.50;5019918;28;20026;-66
2021/12/12 05:55:15;;;;;;;1.27;0.82;;;;;;;9.14;100.00;98893.84;5023977;28;20041;-67
2021/12/12 05:57:45;;;;;;;1.42;0.90;;;;;;;9.02;100.00;98903.97;5023765;28;20050;-65
2021/12/12 06:00:14;;;;;;;7.70;1.20;;;;;;;9.03;100.00;98910.09;5024535;28;20040;-67
2021/12/12 06:02:41;;;;;;;4.65;1.00;;;;;;;8.99;100.00;98906.97;5023988;28;20245;-65
2021/12/12 06:05:08;;;;;;;1.38;0.90;;;;;;;8.94;100.00;98904.84;5024683;28;20053;-66
2021/12/12 06:07:34;;;;;;;4.90;0.90;;;;;;;8.88;100.00;98910.81;5022908;28;20026;-66
2021/12/12 06:10:04;;;;;;;2.13;1.10;;;;;;;9.12;100.00;98914.34;5021540;28;20042;-67
2021/12/12 06:12:33;;;;;;;14.70;7.70;;;;;;;9.11;100.00;98917.97;5021283;28;20636;-65
2021/12/12 06:14:59;;;;;;;11.65;7.13;;;;;;;9.37;100.00;98926.44;5021461;28;20263;-65
2021/12/12 06:17:26;;;;;;;6.78;4.07;;;;;;;9.35;100.00;98952.19;5021450;28;20339;-65
2021/12/12 06:19:52;;;;;;;10.75;4.60;;;;;;;9.49;100.00;98966.50;5023567;28;20369;-65
2021/12/12 06:22:18;;;;;;;18.67;9.57;;;;;;;9.56;100.00;98968.28;5023621;28;20033;-65
2021/12/12 06:24:44;;;;;;;10.93;4.60;;;;;;;9.71;100.00;98975.47;5022179;28;20037;-65
2021/12/12 06:27:16;;;;;;;9.15;4.68;;;;;;;9.78;100.00;98979.88;5021864;28;20031;-65
2021/12/12 06:29:45;;;;;;;9.25;4.43;;;;;;;9.79;100.00;98992.09;5020576;28;20038;-67
2021/12/12 06:32:11;;;;;;;17.52;8.57;;;;;;;9.71;100.00;98996.59;5021955;28;20041;-65
2021/12/12 06:34:37;;;;;;;15.18;9.23;;;;;;;9.67;100.00;99001.41;5022116;28;20315;-67
2021/12/12 06:37:04;;;;;;;18.48;15.65;;;;;;;9.62;100.00;99014.34;5023319;28;20331;-67
2021/12/12 06:39:30;;;;;;;10.50;6.15;;;;;;;9.87;100.00;99012.38;5021783;28;20732;-67
2021/12/12 06:41:56;;;;;;;7.82;5.35;;;;;;;9.97;100.00;99010.31;5021257;28;20045;-67
2021/12/12 06:44:21;;;;;;;9.85;5.97;;;;;;;10.42;96.93;99012.16;5020663;28;20025;-65
2021/12/12 06:46:47;;;;;;;14.27;7.07;;;;;;;10.39;96.19;99017.78;5020894;28;20037;-67
2021/12/12 06:49:16;;;;;;;19.45;11.13;;;;;;;10.42;96.52;99024.59;5021376;28;20033;-66
2021/12/12 06:51:46;;;;;;;15.98;8.77;;;;;;;10.54;95.65;99031.09;5022754;28;20037;-67
2021/12/12 06:54:16;;;;;;;8.90;4.68;;;;;;;10.74;93.32;99026.09;5023177;28;20030;-67
2021/12/12 06:56:42;;;;;;;6.93;2.50;;;;;;;10.49;93.98;99030.81;5021085;28;20061;-65
2021/12/12 06:59:08;;;;;;;7.10;3.00;;;;;;;10.21;96.45;99019.94;5021336;28;20049;-66
2021/12/12 07:01:35;;;;;;;4.78;2.10;;;;;;;10.10;98.09;99022.94;5021403;28;20076;-66
2021/12/12 07:04:02;;;;;;;5.25;1.80;;;;;;;10.11;99.68;99037.81;5018913;28;20022;-65
2021/12/12 07:06:29;;;;;;;5.50;1.63;;;;;;;10.07;100.00;99036.53;5022201;28;20040;-65
2021/12/12 07:09:01;;;;;;;9.05;1.98;;;;;;;10.22;100.00;99035.63;5023031;28;20029;-66
2021/12/12 07:11:27;;;;;;;3.15;2.00;;;;;;;10.41;100.00;99028.22;5022338;28;20032;-65
2021/12/12 07:13:54;;;;;;;6.22;3.22;;;;;;;10.51;99.10;99024.34;5021370;28;20034;-65
2021/12/12 07:16:21;;;;;;;9.65;3.67;;;;;;;10.59;97.89;99020.78;5022541;28;20061;-67
2021/12/12 07:18:48;;;;;;;10.85;5.38;;;;;;;10.71;98.64;99034.41;5020529;28;20064;-67
2021/12/12 07:21:16;;;;;;;9.23;5.00;;;;;;;10.67;97.88;99031.31;5021366;28;20049;-66
2021/12/12 07:23:44;;;;;;;9.07;3.85;;;;;;;10.57;98.68;99033.38;5020809;28;20029;-67
2021/12/12 07:26:12;;;;;;;7.13;2.42;;;;;;;10.57;100.00;99032.56;5020294;28;20030;-65
2021/12/12 07:28:39;;;;;;;3.50;1.38;;;;;;;10.72;99.62;99057.25;5021851;28;20042;-65
2021/12/12 07:31:09;;;;;;;6.25;1.63;;;;;;;10.85;97.83;99046.84;5022263;28;20029;-67
2021/12/12 07:33:36;;;;;;;6.88;2.08;;;;;;;10.92;97.13;99042.47;5020612;28;20030;-65
2021/12/12 07:36:06;;;;;;;2.17;1.33;;;;;;;10.88;94.36;99041.19;5022825;28;20272;-65
2021/12/12 07:38:32;;;;;;;7.60;2.22;;;;;;;10.70;97.50;99043.34;5021259;28;20061;-67
2021/12/12 07:41:00;;;;;;;4.45;1.52;;;;;;;10.63;98.58;99055.66;5002998;28;20088;-65
2021/12/12 07:43:29;;;;;;;5.47;1.83;;;;;;;10.62;100.00;99067.25;5020411;28;20032;-65
2021/12/12 07:45:55;;;;;;;6.70;2.13;;;;;;;10.62;98.83;99065.44;5020208;28;20128;-66
2021/12/12 07:48:23;;;;;;;6.82;1.60;;;;;;;10.73;99.59;99072.94;5019702;28;20068;-66
2021/12/12 07:50:49;;;;;;;8.27;2.10;;;;;;;10.88;99.84;99081.75;5020594;28;20050;-66
2021/12/12 07:53:17;;;;;;;6.45;1.80;;;;;;;11.12;97.53;99098.41;5020169;28;20100;-67
2021/12/12 07:55:43;;;;;;;3.75;1.55;;;;;;;11.31;97.06;99105.81;5020178;28;20034;-65
2021/12/12 07:58:11;;;;;;;3.10;1.40;;;;;;;11.44;93.20;99113.13;5020023;28;20100;-67
2021/12/12 08:00:39;;;;;;;6.25;1.98;;;;;;;11.51;96.05;99100.81;5019742;28;20032;-65
2021/12/12 08:03:06;;;;;;;2.38;1.42;;;;;;;11.42;93.87;99107.19;5019976;28;20048;-67
2021/12/12 08:05:34;;;;;;;4.28;1.20;;;;;;;11.38;93.85;99109.38;5024822;28;20065;-66
2021/12/12 08:08:05;;;;;;;3.22;0.95;;;;;;;11.39;93.46;99118.16;5023047;28;20034;-67
2021/12/12 08:10:32;;;;;;;6.53;1.48;;;;;;;11.36;94.59;99122.00;5022861;28;20158;-65
2021/12/12 08:12:58;;;;;;;5.13;1.50;;;;;;;11.60;94.40;99128.06;5023171;28;20089;-65
2021/12/12 08:15:26;;;;;;;4.32;1.63;;;;;;;11.67;94.02;99134.28;5023032;28;20080;-67
2021/12/12 08:17:52;;;;;;;3.97;1.35;;;;;;;11.69;94.54;99129.63;5022253;28;20112;-65
2021/12/12 08:20:18;;;;;;;5.43;1.50;;;;;;;11.68;92.26;99131.44;5022857;28;20034;-66
2021/12/12 08:22:47;;;;;;;6.35;2.10;;;;;;;11.64;92.48;99142.59;5022659;28;20041;-67
2021/12/12 08:25:14;;;;;;;34.47;13.88;;;;;;;11.80;95.60;99145.09;5023017;28;20049;-67
2021/12/12 08:27:41;;;;;;;45.83;11.48;;;;;;;11.74;91.75;99148.44;5022528;28;20414;-65
2021/12/12 08:30:10;;;;;;;31.95;10.70;;;;;;;11.66;94.70;99136.09;5022602;28;20064;-67
2021/12/12 08:32:36;;;;;;;36.60;11.43;;;;;;;11.50;93.28;99141.59;5022828;28;20045;-67
2021/12/12 08:35:02;;;;;;;30.13;8.98;;;;;;;11.44;96.17;99147.59;5022588;28;20030;-67
2021/12/12 08:37:29;;;;;;;25.02;7.93;;;;;;;11.47;95.26;99145.44;5005139;28;20097;-65
2021/12/12 08:39:55;;;;;;;4.15;1.70;;;;;;;11.64;95.17;99145.25;5022882;28;20057;-67
2021/12/12 08:42:27;;;;;;;3.92;1.10;;;;;;;11.67;93.93;99151.00;5022443;28;20033;-66
2021/12/12 08:44:58;;;;;;;8.85;1.27;;;;;;;11.75;93.18;99150.09;5022578;28;20087;-65
2021/12/12 08:47:24;;;;;;;5.97;1.48;;;;;;;11.85;90.03;99163.09;5022279;28;20041;-67
2021/12/12 08:49:50;;;;;;;7.22;1.20;;;;;;;12.03;92.70;99166.19;5022284;28;20406;-65
2021/12/12 08:52:21;;;;;;;2.90;1.13;;;;;;;12.08;92.66;99163.81;5021979;28;20038;-67
2021/12/12 08:54:49;;;;;;;3.88;0.88;;;;;;;12.10;88.39;99164.44;5022579;28;20045;-65
2021/12/12 08:57:31;;;;;;;4.60;0.90;;;;;;;12.11;88.61;99161.59;5021859;28;20318;-65
2021/12/12 08:59:58;;;;;;;4.40;1.17;;;;;;;12.23;89.52;99169.09;5018303;28;20034;-65
2021/12/12 09:02:24;;;;;;;2.60;1.05;;;;;;;12.18;90.47;99161.69;5001781;28;20049;-65
2021/12/12 09:04:57;;;;;;;2.50;0.73;;;;;;;12.28;88.35;99169.34;5001867;28;20093;-65
2021/12/12 09:07:35;;;;;;;4.00;0.88;;;;;;;12.17;88.04;99180.44;5001894;28;20319;-67
2021/12/12 09:10:07;;;;;;;4.55;1.23;;;;;;;12.21;90.09;99182.53;5002007;28;20050;-65
2021/12/12 09:12:48;;;;;;;2.50;0.70;;;;;;;12.30;89.16;99183.25;5001144;28;20077;-65
2021/12/12 09:15:22;;;;;;;4.10;1.10;;;;;;;12.29;87.99;99190.41;5002083;28;20040;-67
2021/12/12 09:18:02;;;;;;;5.47;1.15;;;;;;;12.32;90.38;99184.72;5004881;28;20057;-67
2021/12/12 09:20:45;;;;;;;3.42;1.02;;;;;;;12.41;90.96;99172.97;5002064;28;20094;-65
2021/12/12 09:23:34;;;;;;;6.93;0.95;;;;;;;12.34;90.20;99172.09;5020911;28;20041;-65
2021/12/12 09:26:11;;;;;;;2.03;0.70;;;;;;;12.37;89.60;99177.00;5020816;28;20101;-66
2021/12/12 09:28:49;;;;;;;4.75;1.00;;;;;;;12.48;89.39;99173.03;5020980;28;20324;-67
2021/12/12 09:31:19;;;;;;;5.38;1.20;;;;;;;12.59;90.72;99177.06;5021237;28;20312;-65
2021/12/12 09:34:02;;;;;;;2.55;0.90;;;;;;;12.56;88.60;99186.22;5021197;28;20046;-65
2021/12/12 09:36:36;;;;;;;4.35;1.10;;;;;;;12.66;89.21;99181.44;5003889;28;20028;-65
2021/12/12 09:39:35;;;;;;;3.33;1.05;;;;;;;12.77;87.72;99180.94;5021326;28;20276;-67
2021/12/12 09:42:38;;;;;;;3.15;1.00;;;;;;;12.71;85.91;99178.22;5017304;28;20048;-65
2021/12/12 09:45:03;;;;;;;3.67;0.90;;;;;;;12.68;85.96;99186.56;5021427;28;20030;-67
2021/12/12 09:47:59;;;;;;;4.20;1.00;;;;;;;12.74;87.45;99191.13;5020564;28;20104;-65
2021/12/12 09:53:36;;;;;;;12.27;1.67;;;;;;;12.67;86.33;99182.25;5021331;28;20100;-65
2021/12/12 09:56:06;;;;;;;;;;;;;;;12.71;87.59;99188.84;5021642;28;20257;-65
2021/12/12 09:58:42;;;;;;;4.45;1.10;;;;;;;12.68;87.30;99184.72;5021265;28;20020;-65
2021/12/12 10:01:19;;;;;;;3.65;1.10;;;;;;;12.73;85.13;99184.16;5021228;28;20025;-67
2021/12/12 10:03:47;;;;;;;4.80;1.33;;;;;;;12.77;85.45;99193.41;5021385;28;20041;-67
2021/12/12 10:06:28;;;;;;;6.30;1.23;;;;;;;12.90;86.87;99198.00;5024508;28;20037;-67
2021/12/12 10:09:10;;;;;;;4.65;1.65;;;;;;;13.06;85.80;99200.41;5024235;28;20405;-67
2021/12/12 10:12:11;;;;;;;2.97;1.05;;;;;;;12.96;86.70;99195.41;5024248;28;20040;-63
2021/12/12 10:14:39;;;;;;;4.50;1.08;;;;;;;12.89;86.17;99196.38;5006719;28;20021;-63
2021/12/12 10:17:28;;;;;;;5.05;1.15;;;;;;;12.87;86.47;99193.09;5023655;28;20383;-67
2021/12/12 10:20:06;;;;;;;5.20;1.85;;;;;;;12.82;87.63;99192.81;5023887;28;20263;-66
2021/12/12 10:22:59;;;;;;;5.13;1.70;;;;;;;12.78;86.22;99190.56;5024473;28;20204;-67
2021/12/12 10:25:32;;;;;;;4.22;1.63;;;;;;;12.90;87.35;99190.03;5024221;28;20029;-65
2021/12/12 10:28:11;;;;;;;5.78;1.83;;;;;;;12.95;87.31;99190.28;5024041;28;20041;-67
2021/12/12 10:30:47;;;;;;;5.78;1.60;;;;;;;13.23;86.06;99190.34;5017370;28;20095;-67
2021/12/12 10:33:18;;;;;;;7.18;1.65;;;;;;;13.54;84.96;99187.34;5004472;28;20100;-67
2021/12/12 10:36:09;;;;;;;7.05;2.00;;;;;;;13.61;85.31;99186.38;5004500;28;20038;-67
2021/12/12 10:39:02;;;;;;;10.57;2.47;;;;;;;13.70;83.89;99195.84;5006862;28;20041;-63
2021/12/12 10:41:36;;;;;;;6.32;2.53;;;;;;;13.86;82.73;99188.56;5004214;28;20034;-64
2021/12/12 10:44:11;;;;;;;10.50;2.05;;;;;;;14.19;83.68;99194.84;5004154;28;20038;-63
2021/12/12 10:46:36;;;;;;;23.55;5.30;;;;;;;14.07;84.46;99193.78;5003732;28;20077;-63
2021/12/12 10:49:13;;;;;;;23.52;7.97;;;;;;;14.15;84.59;99195.44;5003918;28;20089;-63
2021/12/12 10:51:47;;;;;;;26.38;7.20;;;;;;;14.10;85.15;99192.56;5004187;28;20022;-63
2021/12/12 10:54:21;;;;;;;18.25;5.68;;;;;;;14.12;85.48;99202.00;5004070;28;20093;-63
2021/12/12 10:57:05;;;;;;;16.02;5.60;;;;;;;14.21;85.48;99202.66;5003852;28;20077;-65
2021/12/12 10:59:36;;;;;;;18.40;5.53;;;;;;;14.05;85.87;99182.50;5004083;28;20036;-65
2021/12/12 11:02:09;;;;;;;12.50;6.45;;;;;;;14.12;84.83;99193.19;5022217;28;20049;-65
2021/12/12 11:04:45;;;;;;;18.50;6.53;;;;;;;13.96;84.72;99192.50;5023170;28;20247;-65
2021/12/12 11:07:23;;;;;;;17.20;5.72;;;;;;;14.26;83.29;99184.22;5023358;28;20032;-65
2021/12/12 11:09:59;;;;;;;10.68;5.72;;;;;;;14.26;83.52;99187.72;5023257;28;20252;-65
2021/12/12 11:12:51;;;;;;;14.13;5.22;;;;;;;14.18;84.52;99198.53;5023199;28;20033;-64
2021/12/12 11:15:35;;;;;;;18.15;6.80;;;;;;;14.17;84.84;99202.22;5022746;28;20025;-63
2021/12/12 11:18:05;;;;;;;11.65;6.10;;;;;;;14.01;84.00;99194.56;5022296;28;20053;-65
2021/12/12 11:20:36;;;;;;;17.40;7.63;;;;;;;13.90;85.11;99192.47;5023065;28;20041;-65
2021/12/12 11:23:15;;;;;;;16.45;8.23;;;;;;;13.81;86.24;99199.78;5023223;28;20093;-66
2021/12/12 11:25:46;;;;;;;24.50;9.20;;;;;;;13.78;85.99;99200.19;5013211;28;20026;-66
2021/12/12 11:28:21;;;;;;;18.52;9.32;;;;;;;13.64;86.95;99204.59;5007554;28;20022;-66
2021/12/12 11:30:56;;;;;;;22.13;10.35;;;;;;;13.85;86.68;99202.88;5008128;28;20079;-65
2021/12/12 11:33:25;;;;;;;24.23;11.10;;;;;;;13.73;87.41;99206.09;5005807;28;20072;-63
2021/12/12 11:35:54;;;;;;;24.10;11.93;;;;;;;13.73;86.84;99205.28;5006067;28;20036;-64
2021/12/12 11:38:41;;;;;;;25.88;11.95;;;;;;;13.72;86.77;99214.25;5007626;28;20042;-65
2021/12/12 11:41:12;;;;;;;16.83;9.63;;;;;;;13.65;86.87;99205.41;5007737;28;20029;-65
2021/12/12 11:44:01;;;;;;;36.53;15.35;;;;;;;13.60;88.11;99205.19;5007547;28;20058;-63
2021/12/12 11:46:41;;;;;;;32.55;15.93;;;;;;;13.53;87.44;99207.81;4979063;28;20042;-66
2021/12/12 11:49:16;;;;;;;16.92;9.13;;;;;;;13.49;87.77;99206.50;5009129;28;20338;-66
2021/12/12 11:51:48;;;;;;;17.85;8.60;;;;;;;13.39;87.74;99198.03;4991106;28;20030;-66
2021/12/12 11:54:29;;;;;;;16.77;8.30;;;;;;;13.48;88.12;99209.38;5006263;28;20218;-68
2021/12/12 11:57:13;;;;;;;17.42;8.57;;;;;;;13.32;88.49;99203.31;5020002;28;20073;-68
2021/12/12 11:59:49;;;;;;;15.43;7.93;;;;;;;13.20;87.65;99206.69;5019560;28;20056;-65
2021/12/12 12:02:36;;;;;;;17.15;7.20;;;;;;;13.33;87.39;99201.47;5019059;28;20072;-68
2021/12/12 12:05:04;;;;;;;17.92;7.53;;;;;;;13.20;87.04;99204.84;5017437;28;20018;-66
2021/12/12 12:07:59;;;;;;;14.63;7.63;;;;;;;13.19;88.48;99205.03;5022097;28;20061;-67
2021/12/12 12:10:33;;;;;;;19.00;10.63;;;;;;;13.43;88.63;99196.66;5020532;28;20105;-63
2021/12/12 12:13:06;;;;;;;17.52;7.40;;;;;;;13.43;87.67;99194.00;5012069;28;20154;-63
2021/12/12 12:15:49;;;;;;;15.68;6.70;;;;;;;13.20;89.03;99193.41;5019256;28;20033;-63